KDCM

Chester Catawba Regional Airport

Chester, South Carolina, USA
METAR KDCM 212315Z AUTO 18004KT 7SM SCT045 SCT100 27/20 A2996 RMK AO2 LTG DSNT SE W AND NW
Observed Flight Rules
Aug-21 @ 23:15 UTC (31 minutes ago) Visual Flight Rules
Wind Visibility Clouds
180° at 4 knots 7 miles
  • Scattered at 4,500' AGL
  • Scattered at 10,000' AGL
Temperatures Readings
Current 27°C / 81°F
Dewpoint 20°C / 68°F
Humidity 66%
Altimeter 29.96" Hg
Pressure 1015 hPa
Elevation 200
METAR KDCM 212315Z AUTO 18004KT 7SM SCT045 SCT100 27/20 A2996 RMK AO2 LTG DSNT SE W AND NW
Observed Flight Rules
Aug-21 @ 23:15 UTC
(31 minutes ago)
VFR
Wind Visibility
180° at 4 knots 7 miles
Clouds
  • Scattered at 4,500' AGL
  • Scattered at 10,000' AGL
Temperature Dewpoint
27°C / 81°F 20°C / 68°F
Humidity Altimeter Pressure
66% 29.96" Hg 1015 hPa